Wetterdaten: Woche 16.05.16 - 22.05.16 (KW20)
Datum Zeit Auen-Temp. Temp gefhlt Luftfeuchte Luftdruck Regen Wind Richtung Sonnenschein Taupunkt Windben
16.05.2016 00:00 3,8 C 3,5 C 70 % 1019,6 hPa 0,0 mm 3,4 km/h (1 Bft) S 0,00 h -1,1 C 5,5 km/h (1 Bft)
16.05.2016 01:00 3,7 C 3,4 C 70 % 1019,6 hPa 0,0 mm 3,3 km/h (1 Bft) SW 0,00 h -1,2 C 3,7 km/h (1 Bft)
16.05.2016 02:00 3,6 C 3,2 C 71 % 1019,4 hPa 0,0 mm 3,9 km/h (1 Bft) SW 0,00 h -1,1 C 6,2 km/h (2 Bft)
16.05.2016 03:00 3,1 C 2,4 C 72 % 1019,1 hPa 0,0 mm 5,8 km/h (2 Bft) SW 0,00 h -1,4 C 7,3 km/h (2 Bft)
16.05.2016 04:00 3,3 C 2,9 C 71 % 1018,8 hPa 0,0 mm 4,9 km/h (1 Bft) SW 0,00 h -1,4 C 6,6 km/h (2 Bft)
16.05.2016 05:00 3,4 C 3,0 C 70 % 1018,4 hPa 0,0 mm 1,9 km/h (1 Bft) SW 0,00 h -1,5 C 3,5 km/h (1 Bft)
16.05.2016 06:00 3,3 C 3,1 C 71 % 1018,4 hPa 0,0 mm 1,3 km/h (1 Bft) O-NO 0,00 h -1,5 C 1,7 km/h (1 Bft)
16.05.2016 07:00 4,0 C 4,6 C 71 % 1018,4 hPa 0,0 mm 3,2 km/h (1 Bft) W-SW 0,00 h -0,7 C 3,1 km/h (1 Bft)
16.05.2016 08:00 6,2 C 9,1 C 66 % 1018,6 hPa 0,0 mm 7,6 km/h (2 Bft) W 0,42 h 0,3 C 13,6 km/h (3 Bft)
16.05.2016 09:00 5,9 C 6,4 C 64 % 1019,0 hPa 0,0 mm 9,3 km/h (2 Bft) W 0,00 h -0,3 C 12,2 km/h (2 Bft)
16.05.2016 10:00 6,1 C 7,1 C 63 % 1018,8 hPa 0,0 mm 7,6 km/h (2 Bft) W 0,00 h -0,4 C 10,2 km/h (2 Bft)
16.05.2016 11:00 7,2 C 9,1 C 60 % 1018,7 hPa 0,0 mm 9,0 km/h (2 Bft) W-SW 0,08 h 0,0 C 16,4 km/h (3 Bft)
16.05.2016 12:00 7,5 C 8,9 C 59 % 1018,8 hPa 0,0 mm 12,5 km/h (3 Bft) W 0,00 h 0,1 C 15,7 km/h (3 Bft)
16.05.2016 13:00 6,6 C 6,6 C 61 % 1018,8 hPa 0,0 mm 13,7 km/h (3 Bft) W-SW 0,00 h -0,3 C 17,2 km/h (3 Bft)
16.05.2016 14:00 7,3 C 9,3 C 66 % 1018,6 hPa 0,0 mm 9,7 km/h (2 Bft) W-SW 0,08 h 1,4 C 13,1 km/h (3 Bft)
16.05.2016 15:00 9,0 C 12,3 C 62 % 1018,3 hPa 0,0 mm 13,2 km/h (3 Bft) W 0,33 h 2,0 C 19,0 km/h (3 Bft)
16.05.2016 16:00 8,9 C 10,7 C 59 % 1018,0 hPa 0,0 mm 11,9 km/h (2 Bft) W-SW 0,25 h 1,4 C 14,6 km/h (3 Bft)
16.05.2016 17:00 7,8 C 7,8 C 63 % 1017,8 hPa 0,7 mm 10,3 km/h (2 Bft) NW 0,00 h 1,1 C 15,6 km/h (3 Bft)
16.05.2016 18:00 6,2 C 5,8 C 72 % 1017,8 hPa 0,0 mm 7,7 km/h (2 Bft) W 0,00 h 1,5 C 7,6 km/h (2 Bft)
16.05.2016 19:00 5,4 C 5,1 C 77 % 1017,8 hPa 2,1 mm 4,9 km/h (1 Bft) W-NW 0,00 h 1,6 C 8,5 km/h (2 Bft)
16.05.2016 20:00 3,2 C 2,7 C 79 % 1018,4 hPa 4,1 mm 6,4 km/h (2 Bft) SW 0,00 h 0,0 C 9,5 km/h (2 Bft)
16.05.2016 21:00 2,4 C 2,1 C 82 % 1019,1 hPa 0,7 mm 3,7 km/h (1 Bft) W-SW 0,00 h -0,5 C 5,9 km/h (2 Bft)
16.05.2016 22:00 2,6 C 2,5 C 83 % 1019,3 hPa 0,7 mm 2,2 km/h (1 Bft) W-SW 0,00 h 0,1 C 3,6 km/h (1 Bft)
16.05.2016 23:00 3,2 C 3,0 C 84 % 1019,3 hPa 0,0 mm 0,7 km/h (0 Bft) SW 0,00 h 0,6 C 0,7 km/h (0 Bft)
17.05.2016 00:00 3,4 C 3,2 C 84 % 1019,1 hPa 0,7 mm 3,1 km/h (1 Bft) SW 0,00 h 1,0 C 4,5 km/h (1 Bft)
17.05.2016 01:00 3,6 C 3,4 C 84 % 1019,1 hPa 0,0 mm 3,0 km/h (1 Bft) SW 0,00 h 1,2 C 5,2 km/h (1 Bft)
17.05.2016 02:00 3,7 C 3,0 C 84 % 1018,8 hPa 0,0 mm 2,2 km/h (1 Bft) S 0,00 h 1,3 C 3,4 km/h (1 Bft)
17.05.2016 03:00 3,6 C 3,1 C 84 % 1018,3 hPa 0,0 mm 2,3 km/h (1 Bft) S 0,00 h 1,2 C 2,8 km/h (1 Bft)
17.05.2016 04:00 3,3 C 3,0 C 85 % 1017,8 hPa 0,0 mm 1,5 km/h (1 Bft) O-SO 0,00 h 1,0 C 1,4 km/h (1 Bft)
17.05.2016 05:00 3,4 C 3,2 C 86 % 1017,7 hPa 0,0 mm 1,9 km/h (1 Bft) S 0,00 h 1,2 C 2,2 km/h (1 Bft)
17.05.2016 06:00 3,8 C 3,6 C 85 % 1017,7 hPa 0,0 mm 5,9 km/h (2 Bft) S 0,00 h 1,6 C 7,2 km/h (2 Bft)
17.05.2016 07:00 4,8 C 6,1 C 84 % 1017,9 hPa 0,0 mm 4,2 km/h (1 Bft) NW 0,17 h 2,3 C 5,5 km/h (1 Bft)
17.05.2016 08:00 5,7 C 6,8 C 83 % 1018,2 hPa 0,0 mm 2,6 km/h (1 Bft) W-SW 0,00 h 3,0 C 3,5 km/h (1 Bft)
17.05.2016 09:00 7,1 C 9,6 C 80 % 1018,4 hPa 0,0 mm 5,2 km/h (1 Bft) NW 0,25 h 3,9 C 9,4 km/h (2 Bft)
17.05.2016 10:00 8,5 C 11,7 C 75 % 1018,7 hPa 0,0 mm 4,3 km/h (1 Bft) W-SW 0,67 h 4,3 C 5,8 km/h (1 Bft)
17.05.2016 11:00 9,3 C 12,1 C 71 % 1018,8 hPa 0,0 mm 7,0 km/h (2 Bft) NW 0,42 h 4,4 C 10,0 km/h (2 Bft)
17.05.2016 12:00 9,2 C 10,9 C 72 % 1018,8 hPa 0,0 mm 7,9 km/h (2 Bft) NW 0,00 h 4,3 C 13,7 km/h (3 Bft)
17.05.2016 13:00 10,4 C 13,0 C 66 % 1018,8 hPa 0,0 mm 9,7 km/h (2 Bft) W 0,33 h 4,3 C 13,9 km/h (3 Bft)
17.05.2016 14:00 12,2 C 16,4 C 59 % 1018,6 hPa 0,0 mm 11,1 km/h (2 Bft) W 0,75 h 4,4 C 15,7 km/h (3 Bft)
17.05.2016 15:00 12,2 C 15,2 C 57 % 1018,3 hPa 0,0 mm 11,2 km/h (2 Bft) W-NW 0,42 h 3,9 C 17,1 km/h (3 Bft)
17.05.2016 16:00 11,8 C 15,0 C 58 % 1018,0 hPa 0,0 mm 9,8 km/h (2 Bft) W 0,33 h 3,9 C 14,4 km/h (3 Bft)
17.05.2016 17:00 11,6 C 13,6 C 58 % 1017,7 hPa 0,0 mm 8,1 km/h (2 Bft) W 0,00 h 3,7 C 8,3 km/h (2 Bft)
17.05.2016 18:00 11,7 C 13,0 C 58 % 1017,4 hPa 0,0 mm 8,5 km/h (2 Bft) NW 0,00 h 3,7 C 9,3 km/h (2 Bft)
17.05.2016 19:00 11,7 C 13,5 C 59 % 1017,2 hPa 0,0 mm 5,3 km/h (1 Bft) NW 0,00 h 3,8 C 7,3 km/h (2 Bft)
17.05.2016 20:00 9,7 C 10,2 C 63 % 1017,2 hPa 0,0 mm 0,9 km/h (0 Bft) S-SO 0,00 h 2,9 C 1,1 km/h (0 Bft)
17.05.2016 21:00 7,7 C 7,8 C 71 % 1017,2 hPa 0,0 mm 0,5 km/h (0 Bft) S 0,00 h 2,8 C 0,6 km/h (0 Bft)
17.05.2016 22:00 6,6 C 6,5 C 76 % 1017,5 hPa 0,0 mm 0,7 km/h (0 Bft) S 0,00 h 2,7 C 1,3 km/h (1 Bft)
17.05.2016 23:00 6,3 C 6,2 C 79 % 1017,5 hPa 0,0 mm 0,4 km/h (0 Bft) N 0,00 h 2,9 C 0,0 km/h (0 Bft)
18.05.2016 00:00 5,7 C 5,3 C 80 % 1017,2 hPa 0,0 mm 0,1 km/h (0 Bft) N 0,00 h 2,4 C 0,0 km/h (0 Bft)
18.05.2016 01:00 4,4 C 3,7 C 81 % 1016,8 hPa 0,0 mm 0,0 km/h (0 Bft) N 0,00 h 1,4 C 0,0 km/h (0 Bft)
18.05.2016 02:00 3,6 C 2,9 C 82 % 1016,3 hPa 0,0 mm 0,0 km/h (0 Bft) N 0,00 h 0,9 C 0,0 km/h (0 Bft)
18.05.2016 03:00 3,6 C 3,1 C 84 % 1016,0 hPa 0,0 mm 0,0 km/h (0 Bft) N 0,00 h 1,1 C 0,0 km/h (0 Bft)
18.05.2016 04:00 3,8 C 3,4 C 85 % 1015,6 hPa 0,0 mm 0,0 km/h (0 Bft) N 0,00 h 1,5 C 0,0 km/h (0 Bft)
18.05.2016 05:00 3,8 C 3,5 C 85 % 1015,1 hPa 0,0 mm 0,0 km/h (0 Bft) N 0,00 h 1,5 C 0,0 km/h (0 Bft)
18.05.2016 06:00 4,5 C 4,6 C 86 % 1015,0 hPa 0,0 mm 0,0 km/h (0 Bft) N 0,00 h 2,4 C 0,0 km/h (0 Bft)
18.05.2016 07:00 7,5 C 10,8 C 83 % 1015,2 hPa 0,0 mm 0,0 km/h (0 Bft) N 0,58 h 4,8 C 0,0 km/h (0 Bft)
18.05.2016 08:00 10,3 C 13,9 C 76 % 1015,4 hPa 0,0 mm 0,6 km/h (0 Bft) NO 1,00 h 6,3 C 0,8 km/h (0 Bft)
18.05.2016 09:00 13,3 C 19,7 C 65 % 1015,6 hPa 0,0 mm 3,7 km/h (1 Bft) N-NW 1,00 h 6,8 C 8,1 km/h (2 Bft)
18.05.2016 10:00 14,3 C 19,4 C 58 % 1015,6 hPa 0,0 mm 5,3 km/h (1 Bft) NW 1,02 h 6,2 C 6,8 km/h (2 Bft)
18.05.2016 11:00 15,5 C 20,6 C 56 % 1015,5 hPa 0,0 mm 7,4 km/h (2 Bft) N-NO 0,98 h 6,7 C 10,2 km/h (2 Bft)
18.05.2016 12:00 15,4 C 19,1 C 55 % 1015,2 hPa 0,0 mm 7,1 km/h (2 Bft) NO 0,75 h 6,3 C 11,5 km/h (2 Bft)
18.05.2016 13:00 17,2 C 21,5 C 50 % 1014,2 hPa 0,0 mm 7,9 km/h (2 Bft) O-NO 0,53 h 6,7 C 10,2 km/h (2 Bft)
18.05.2016 14:00 17,2 C 21,5 C 49 % 1013,6 hPa 0,0 mm 9,1 km/h (2 Bft) NO 0,80 h 6,4 C 11,6 km/h (2 Bft)
18.05.2016 15:00 16,6 C 20,3 C 50 % 1012,9 hPa 0,0 mm 7,8 km/h (2 Bft) NO 0,42 h 6,2 C 10,4 km/h (2 Bft)
18.05.2016 16:00 17,1 C 22,4 C 49 % 1012,2 hPa 0,0 mm 5,8 km/h (2 Bft) O-NO 1,05 h 6,4 C 7,7 km/h (2 Bft)
18.05.2016 17:00 16,9 C 19,4 C 49 % 1011,7 hPa 0,0 mm 7,1 km/h (2 Bft) O-NO 0,12 h 6,2 C 8,7 km/h (2 Bft)
18.05.2016 18:00 16,3 C 17,7 C 51 % 1011,3 hPa 0,0 mm 3,8 km/h (1 Bft) O-NO 0,00 h 6,0 C 4,1 km/h (1 Bft)
18.05.2016 19:00 14,3 C 15,7 C 56 % 1011,0 hPa 0,0 mm 0,4 km/h (0 Bft) O-NO 0,08 h 5,8 C 0,3 km/h (0 Bft)
18.05.2016 20:00 12,0 C 13,1 C 62 % 1010,6 hPa 0,0 mm 0,7 km/h (0 Bft) S-SO 0,00 h 4,9 C 1,2 km/h (1 Bft)
18.05.2016 21:00 9,0 C 9,1 C 71 % 1010,2 hPa 0,0 mm 0,0 km/h (0 Bft) N 0,00 h 4,0 C 0,0 km/h (0 Bft)
18.05.2016 22:00 8,0 C 7,5 C 74 % 1009,9 hPa 0,0 mm 0,0 km/h (0 Bft) N 0,00 h 3,6 C 0,0 km/h (0 Bft)
18.05.2016 23:00 7,5 C 7,1 C 76 % 1009,6 hPa 0,0 mm 0,0 km/h (0 Bft) N 0,00 h 3,6 C 0,0 km/h (0 Bft)
19.05.2016 00:00 8,2 C 8,1 C 78 % 1009,4 hPa 0,0 mm 1,6 km/h (1 Bft) O 0,00 h 4,5 C 4,0 km/h (1 Bft)
19.05.2016 01:00 8,5 C 8,2 C 79 % 1009,4 hPa 0,7 mm 3,9 km/h (1 Bft) S-SO 0,00 h 5,1 C 3,8 km/h (1 Bft)
19.05.2016 02:00 8,1 C 7,8 C 82 % 1008,9 hPa 0,0 mm 2,0 km/h (1 Bft) SO 0,00 h 5,1 C 3,4 km/h (1 Bft)
19.05.2016 03:00 8,7 C 8,5 C 82 % 1009,5 hPa 0,7 mm 3,2 km/h (1 Bft) S 0,00 h 5,8 C 4,7 km/h (1 Bft)
19.05.2016 04:00 8,6 C 8,2 C 81 % 1009,1 hPa 0,0 mm 4,3 km/h (1 Bft) SW 0,00 h 5,6 C 5,3 km/h (1 Bft)
19.05.2016 05:00 8,2 C 8,0 C 82 % 1008,9 hPa 0,0 mm 1,4 km/h (1 Bft) S-SO 0,00 h 5,3 C 2,1 km/h (1 Bft)
19.05.2016 06:00 8,1 C 7,9 C 83 % 1009,1 hPa 0,0 mm 0,1 km/h (0 Bft) SO 0,00 h 5,3 C 0,0 km/h (0 Bft)
19.05.2016 07:00 8,3 C 8,2 C 83 % 1009,3 hPa 0,0 mm 0,4 km/h (0 Bft) S-SW 0,00 h 5,6 C 0,3 km/h (0 Bft)
19.05.2016 08:00 8,3 C 8,1 C 83 % 1009,8 hPa 0,7 mm 2,6 km/h (1 Bft) W 0,00 h 5,5 C 5,1 km/h (1 Bft)
19.05.2016 09:00 7,5 C 7,3 C 82 % 1010,7 hPa 1,4 mm 6,0 km/h (2 Bft) S 0,00 h 4,6 C 8,7 km/h (2 Bft)
19.05.2016 10:00 6,0 C 5,9 C 83 % 1011,5 hPa 2,7 mm 5,6 km/h (1 Bft) SW 0,00 h 3,3 C 10,7 km/h (2 Bft)
19.05.2016 11:00 6,1 C 6,4 C 83 % 1011,9 hPa 1,4 mm 4,2 km/h (1 Bft) W 0,00 h 3,4 C 6,1 km/h (2 Bft)
19.05.2016 12:00 6,8 C 7,2 C 82 % 1012,3 hPa 0,7 mm 5,0 km/h (1 Bft) SW 0,00 h 3,9 C 6,0 km/h (2 Bft)
19.05.2016 13:00 7,7 C 8,1 C 81 % 1012,7 hPa 0,7 mm 3,0 km/h (1 Bft) S 0,00 h 4,6 C 4,6 km/h (1 Bft)
19.05.2016 14:00 8,1 C 8,5 C 80 % 1013,2 hPa 0,7 mm 4,6 km/h (1 Bft) W 0,00 h 4,8 C 7,2 km/h (2 Bft)
19.05.2016 15:00 8,6 C 9,2 C 80 % 1013,4 hPa 0,0 mm 6,6 km/h (2 Bft) W 0,00 h 5,3 C 8,0 km/h (2 Bft)
19.05.2016 16:00 7,8 C 7,8 C 80 % 1013,9 hPa 0,7 mm 4,3 km/h (1 Bft) SW 0,00 h 4,7 C 7,9 km/h (2 Bft)
19.05.2016 17:00 7,4 C 7,5 C 81 % 1014,3 hPa 1,4 mm 3,2 km/h (1 Bft) W-SW 0,00 h 4,4 C 4,6 km/h (1 Bft)
19.05.2016 18:00 7,1 C 7,2 C 82 % 1014,8 hPa 1,4 mm 3,8 km/h (1 Bft) W-SW 0,00 h 4,3 C 5,7 km/h (1 Bft)
19.05.2016 19:00 6,9 C 6,8 C 83 % 1015,4 hPa 0,0 mm 5,8 km/h (2 Bft) W-SW 0,00 h 4,1 C 6,7 km/h (2 Bft)
19.05.2016 20:00 6,6 C 6,4 C 83 % 1016,1 hPa 0,0 mm 1,9 km/h (1 Bft) W-SW 0,00 h 4,0 C 2,6 km/h (1 Bft)
19.05.2016 21:00 6,5 C 6,1 C 84 % 1017,0 hPa 0,7 mm 6,3 km/h (2 Bft) W-SW 0,00 h 3,9 C 6,6 km/h (2 Bft)
19.05.2016 22:00 6,4 C 6,0 C 84 % 1017,6 hPa 0,7 mm 6,4 km/h (2 Bft) W-SW 0,00 h 3,9 C 9,3 km/h (2 Bft)
19.05.2016 23:00 6,5 C 5,9 C 84 % 1017,8 hPa 0,7 mm 10,6 km/h (2 Bft) SW 0,00 h 4,0 C 12,0 km/h (2 Bft)
20.05.2016 00:00 6,8 C 6,3 C 84 % 1018,3 hPa 0,0 mm 8,5 km/h (2 Bft) SW 0,00 h 4,3 C 11,2 km/h (2 Bft)
20.05.2016 01:00 6,9 C 6,5 C 84 % 1018,7 hPa 0,0 mm 6,9 km/h (2 Bft) SW 0,00 h 4,4 C 9,2 km/h (2 Bft)
20.05.2016 02:00 1,0 C 6,6 C 12 % 1018,7 hPa 0,0 mm 7,7 km/h (2 Bft) W-SW 0,00 h -50,8 C 10,8 km/h (2 Bft)
20.05.2016 03:00 0,0 C 6,8 C 0 % 1018,8 hPa 0,0 mm 7,0 km/h (2 Bft) W-SW 0,00 h -60,0 C 7,9 km/h (2 Bft)
20.05.2016 04:00 0,0 C 6,9 C 0 % 1019,1 hPa 0,0 mm 4,8 km/h (1 Bft) SW 0,00 h -60,0 C 5,1 km/h (1 Bft)
20.05.2016 05:00 0,0 C 6,6 C 0 % 1019,2 hPa 0,0 mm 1,5 km/h (1 Bft) W-SW 0,00 h -60,0 C 1,4 km/h (1 Bft)
20.05.2016 06:00 0,0 C 6,8 C 0 % 1019,6 hPa 0,0 mm 3,0 km/h (1 Bft) S 0,00 h -60,0 C 5,1 km/h (1 Bft)
20.05.2016 07:00 0,0 C 7,8 C 0 % 1019,9 hPa 0,0 mm 3,0 km/h (1 Bft) SW 0,00 h -60,0 C 3,5 km/h (1 Bft)
20.05.2016 08:00 0,0 C 11,1 C 0 % 1020,0 hPa 0,0 mm 1,2 km/h (1 Bft) SO 0,17 h -60,0 C 0,8 km/h (0 Bft)
20.05.2016 09:00 10,3 C 13,0 C 77 % 1020,8 hPa 0,0 mm 2,8 km/h (1 Bft) NW 0,33 h 6,5 C 4,0 km/h (1 Bft)
20.05.2016 10:00 12,1 C 17,3 C 72 % 1021,0 hPa 0,0 mm 3,5 km/h (1 Bft) NO 0,98 h 7,1 C 4,7 km/h (1 Bft)
20.05.2016 11:00 13,1 C 17,7 C 66 % 1021,5 hPa 0,0 mm 5,3 km/h (1 Bft) N-NO 0,92 h 6,9 C 7,0 km/h (2 Bft)
20.05.2016 12:00 12,6 C 15,1 C 67 % 1021,5 hPa 0,0 mm 7,2 km/h (2 Bft) O-NO 0,25 h 6,5 C 8,8 km/h (2 Bft)
20.05.2016 13:00 13,7 C 18,0 C 64 % 1021,1 hPa 0,0 mm 4,6 km/h (1 Bft) N-NO 0,92 h 6,9 C 6,5 km/h (2 Bft)
20.05.2016 14:00 14,1 C 17,1 C 63 % 1020,9 hPa 0,0 mm 5,5 km/h (1 Bft) NO 0,42 h 7,3 C 7,1 km/h (2 Bft)
20.05.2016 15:00 14,9 C 18,6 C 61 % 1020,6 hPa 0,0 mm 3,8 km/h (1 Bft) O-SO 0,50 h 7,6 C 3,8 km/h (1 Bft)
20.05.2016 16:00 15,5 C 22,1 C 59 % 1020,4 hPa 0,0 mm 0,6 km/h (0 Bft) SO 1,00 h 7,5 C 0,0 km/h (0 Bft)
20.05.2016 17:00 15,6 C 18,0 C 59 % 1020,1 hPa 0,0 mm 0,0 km/h (0 Bft) S-SO 0,40 h 7,6 C 0,0 km/h (0 Bft)
20.05.2016 18:00 15,9 C 18,4 C 59 % 1019,9 hPa 0,0 mm 1,1 km/h (1 Bft) SO 0,17 h 7,8 C 4,0 km/h (1 Bft)
20.05.2016 19:00 17,6 C 17,7 C 56 % 1020,0 hPa 0,0 mm 0,8 km/h (0 Bft) SO 0,00 h 8,9 C 2,2 km/h (1 Bft)
20.05.2016 20:00 13,5 C 14,4 C 64 % 1020,1 hPa 0,0 mm 0,0 km/h (0 Bft) N 0,00 h 6,7 C 0,0 km/h (0 Bft)
20.05.2016 21:00 10,4 C 10,3 C 74 % 1020,3 hPa 0,0 mm 0,0 km/h (0 Bft) N 0,00 h 5,9 C 0,0 km/h (0 Bft)
20.05.2016 22:00 9,8 C 9,4 C 77 % 1020,3 hPa 0,0 mm 0,0 km/h (0 Bft) N 0,00 h 5,9 C 0,0 km/h (0 Bft)
20.05.2016 23:00 8,5 C 7,8 C 78 % 1020,4 hPa 0,0 mm 0,0 km/h (0 Bft) N 0,00 h 5,0 C 0,0 km/h (0 Bft)
21.05.2016 00:00 7,7 C 7,1 C 80 % 1020,3 hPa 0,0 mm 0,0 km/h (0 Bft) N 0,00 h 4,6 C 0,0 km/h (0 Bft)
21.05.2016 01:00 6,9 C 6,4 C 82 % 1020,1 hPa 0,0 mm 0,0 km/h (0 Bft) N 0,00 h 4,1 C 0,0 km/h (0 Bft)
21.05.2016 02:00 6,3 C 5,8 C 83 % 1019,8 hPa 0,0 mm 0,0 km/h (0 Bft) N 0,00 h 3,6 C 0,0 km/h (0 Bft)
21.05.2016 03:00 6,0 C 5,5 C 84 % 1019,8 hPa 0,0 mm 0,0 km/h (0 Bft) N 0,00 h 3,6 C 0,0 km/h (0 Bft)
21.05.2016 04:00 5,5 C 5,0 C 85 % 1019,6 hPa 0,0 mm 0,0 km/h (0 Bft) N 0,00 h 3,3 C 0,0 km/h (0 Bft)
21.05.2016 05:00 5,1 C 4,5 C 86 % 1019,6 hPa 0,0 mm 0,0 km/h (0 Bft) N 0,00 h 2,9 C 0,0 km/h (0 Bft)
21.05.2016 06:00 6,3 C 9,5 C 86 % 1019,5 hPa 0,0 mm 0,0 km/h (0 Bft) N 0,58 h 4,1 C 0,0 km/h (0 Bft)
21.05.2016 07:00 11,3 C 19,0 C 84 % 1019,6 hPa 0,0 mm 0,0 km/h (0 Bft) N 1,00 h 8,6 C 0,0 km/h (0 Bft)
21.05.2016 08:00 15,1 C 23,3 C 72 % 1019,8 hPa 0,0 mm 0,0 km/h (0 Bft) N 1,00 h 10,0 C 0,0 km/h (0 Bft)
21.05.2016 09:00 16,2 C 21,9 C 61 % 1020,2 hPa 0,0 mm 4,1 km/h (1 Bft) NO 1,00 h 8,5 C 6,8 km/h (2 Bft)
21.05.2016 10:00 17,4 C 22,9 C 57 % 1020,2 hPa 0,0 mm 7,2 km/h (2 Bft) NO 1,00 h 8,9 C 9,0 km/h (2 Bft)
21.05.2016 11:00 18,7 C 24,9 C 54 % 1020,7 hPa 0,0 mm 4,9 km/h (1 Bft) N-NO 1,00 h 9,2 C 7,3 km/h (2 Bft)
21.05.2016 12:00 19,5 C 25,3 C 51 % 1020,3 hPa 0,0 mm 6,0 km/h (2 Bft) NO 1,00 h 9,1 C 10,0 km/h (2 Bft)
21.05.2016 13:00 20,3 C 26,1 C 49 % 1019,8 hPa 0,0 mm 6,9 km/h (2 Bft) N-NO 1,00 h 9,3 C 8,7 km/h (2 Bft)
21.05.2016 14:00 21,1 C 26,9 C 49 % 1019,4 hPa 0,0 mm 6,3 km/h (2 Bft) O-SO 1,00 h 9,8 C 6,4 km/h (2 Bft)
21.05.2016 15:00 21,7 C 27,6 C 47 % 1018,8 hPa 0,0 mm 5,3 km/h (1 Bft) O-NO 1,00 h 9,7 C 7,3 km/h (2 Bft)
21.05.2016 16:00 21,6 C 27,3 C 45 % 1018,4 hPa 0,0 mm 4,9 km/h (1 Bft) W-SW 1,00 h 9,2 C 6,2 km/h (2 Bft)
21.05.2016 17:00 21,6 C 23,1 C 43 % 1018,1 hPa 0,0 mm 4,0 km/h (1 Bft) N-NO 0,00 h 8,5 C 5,0 km/h (1 Bft)
21.05.2016 18:00 21,7 C 23,1 C 43 % 1017,9 hPa 0,0 mm 3,3 km/h (1 Bft) NW 0,00 h 8,5 C 5,6 km/h (1 Bft)
21.05.2016 19:00 20,2 C 21,4 C 48 % 1017,7 hPa 0,0 mm 0,9 km/h (0 Bft) NW 0,00 h 8,7 C 0,9 km/h (0 Bft)
21.05.2016 20:00 17,7 C 18,7 C 55 % 1017,7 hPa 0,0 mm 0,0 km/h (0 Bft) N 0,00 h 8,5 C 0,0 km/h (0 Bft)
21.05.2016 21:00 14,4 C 14,5 C 63 % 1017,4 hPa 0,0 mm 0,0 km/h (0 Bft) N 0,00 h 7,3 C 0,0 km/h (0 Bft)
21.05.2016 22:00 12,0 C 11,2 C 70 % 1017,2 hPa 0,0 mm 0,0 km/h (0 Bft) N 0,00 h 6,6 C 0,0 km/h (0 Bft)
21.05.2016 23:00 10,8 C 10,1 C 74 % 1016,6 hPa 0,0 mm 0,0 km/h (0 Bft) N 0,00 h 6,4 C 0,0 km/h (0 Bft)
22.05.2016 00:00 9,8 C 9,3 C 77 % 1016,4 hPa 0,0 mm 0,0 km/h (0 Bft) N 0,00 h 5,9 C 0,0 km/h (0 Bft)
22.05.2016 01:00 9,0 C 8,4 C 79 % 1015,9 hPa 0,0 mm 0,0 km/h (0 Bft) N 0,00 h 5,4 C 0,0 km/h (0 Bft)
22.05.2016 02:00 8,4 C 7,9 C 80 % 1015,3 hPa 0,0 mm 0,0 km/h (0 Bft) N 0,00 h 5,2 C 0,0 km/h (0 Bft)
22.05.2016 03:00 8,3 C 7,7 C 81 % 1014,7 hPa 0,0 mm 0,1 km/h (0 Bft) SO 0,00 h 5,2 C 0,3 km/h (0 Bft)
22.05.2016 04:00 8,6 C 8,1 C 81 % 1014,2 hPa 0,0 mm 1,6 km/h (1 Bft) O-NO 0,00 h 5,5 C 3,5 km/h (1 Bft)
22.05.2016 05:00 8,5 C 8,2 C 80 % 1013,7 hPa 0,0 mm 1,3 km/h (1 Bft) O-SO 0,00 h 5,2 C 1,4 km/h (1 Bft)
22.05.2016 06:00 10,2 C 14,9 C 79 % 1013,6 hPa 0,0 mm 2,5 km/h (1 Bft) S 0,83 h 6,7 C 1,9 km/h (1 Bft)
22.05.2016 07:00 13,8 C 21,6 C 74 % 1013,6 hPa 0,0 mm 0,0 km/h (0 Bft) N 1,00 h 9,2 C 0,0 km/h (0 Bft)
22.05.2016 08:00 18,8 C 29,2 C 65 % 1013,8 hPa 0,0 mm 0,0 km/h (0 Bft) N 1,00 h 12,1 C 0,0 km/h (0 Bft)
22.05.2016 09:00 22,9 C 31,9 C 55 % 1014,2 hPa 0,0 mm 0,2 km/h (0 Bft) SO 1,00 h 13,2 C 0,7 km/h (0 Bft)
22.05.2016 10:00 24,9 C 31,8 C 46 % 1015,0 hPa 0,0 mm 4,9 km/h (1 Bft) N-NO 1,00 h 12,4 C 7,7 km/h (2 Bft)
22.05.2016 11:00 26,1 C 31,5 C 38 % 1015,1 hPa 0,0 mm 8,0 km/h (2 Bft) N-NO 1,00 h 10,7 C 11,0 km/h (2 Bft)
22.05.2016 12:00 26,7 C 31,6 C 34 % 1014,6 hPa 0,0 mm 9,6 km/h (2 Bft) N-NO 1,00 h 9,5 C 11,2 km/h (2 Bft)
22.05.2016 13:00 27,3 C 31,1 C 32 % 1013,6 hPa 0,0 mm 12,7 km/h (3 Bft) N-NW 1,00 h 9,3 C 16,2 km/h (3 Bft)
22.05.2016 14:00 27,5 C 31,5 C 33 % 1012,3 hPa 0,0 mm 10,3 km/h (2 Bft) NW 0,67 h 9,7 C 12,3 km/h (3 Bft)
22.05.2016 15:00 26,3 C 28,4 C 34 % 1011,2 hPa 0,0 mm 9,5 km/h (2 Bft) W 0,08 h 9,4 C 11,7 km/h (2 Bft)
22.05.2016 16:00 26,4 C 29,8 C 34 % 1010,4 hPa 0,0 mm 5,1 km/h (1 Bft) W 0,67 h 9,2 C 7,2 km/h (2 Bft)
22.05.2016 17:00 25,3 C 26,5 C 30 % 1009,8 hPa 0,0 mm 4,1 km/h (1 Bft) S 0,00 h 6,4 C 4,6 km/h (1 Bft)
22.05.2016 18:00 24,6 C 25,7 C 34 % 1009,7 hPa 0,0 mm 1,4 km/h (1 Bft) SW 0,00 h 7,6 C 2,7 km/h (1 Bft)
22.05.2016 19:00 23,0 C 23,6 C 47 % 1009,8 hPa 0,0 mm 4,3 km/h (1 Bft) W-SW 0,00 h 11,1 C 5,9 km/h (2 Bft)
22.05.2016 20:00 20,7 C 20,4 C 56 % 1010,1 hPa 0,0 mm 1,2 km/h (1 Bft) SO 0,00 h 11,5 C 1,0 km/h (0 Bft)
22.05.2016 21:00 18,2 C 18,7 C 63 % 1010,4 hPa 0,0 mm 0,4 km/h (0 Bft) S 0,00 h 11,2 C 1,0 km/h (0 Bft)
22.05.2016 22:00 17,9 C 17,9 C 58 % 1011,0 hPa 0,0 mm 9,1 km/h (2 Bft) W-SW 0,00 h 9,4 C 14,1 km/h (3 Bft)
22.05.2016 23:00 18,6 C 16,6 C 49 % 1012,4 hPa 0,0 mm 9,7 km/h (2 Bft) W 0,00 h 7,7 C 11,1 km/h (2 Bft)
Min-Datum _ 20.05.16 16.05.16 20.05.16 19.05.16 - 22.05.16 - - 20.05.16 22.05.16
_ Min-Zeit 08:00 21:15 08:00 02:15 - 22:20 - - 08:00 23:50
Minimum _ 0,0 C 2,0 C 0 % 1008,8 hPa - 0,0 km/h (0 Bft) - - -60,0 C 0,0 km/h (0 Bft)
Max-Datum _ 22.05.16 22.05.16 21.05.16 20.05.16 16.05.16 22.05.16 - 22.05.16 22.05.16 16.05.16
_ Max-Zeit 14:45 14:45 07:00 12:00 20:10 22:45 - 16:05 10:00 13:25
Maximum _ 28,2 C 33,3 C 86 % 1021,6 hPa 4,1 mm 19,4 km/h
W-SW (3 Bft)
- 0,08 h 13,6 C 47,4 km/h
W-SW (6 Bft)
Durchschnitt _ 10,4 C 12,2 C 66 % 1016,4 hPa #24,0 mm 4,0 km/h (1 Bft) W-SW #38:43 h 2,2 C 5,4 km/h (1 Bft)